Observation data for Aspermont on 05/13/2018      Previous  Date  Next       Current Mesonet Observations  Soil Data  Daily Summary Page  Observations in Plain Language
KASR 130500Z 15013G18KT 28/15 A2989 RMK A01 T02790146  RH  045%=      5-min Rain = 0
KASR 130505Z 15014G21KT 28/15 A2989 RMK A01 T02790147  RH  045%=      5-min Rain = 0
KASR 130510Z 15014G21KT 28/15 A2989 RMK A01 T02790147  RH  045%=      5-min Rain = 0
KASR 130515Z 15014G25KT 28/15 A2989 RMK A01 T02780147  RH  046%=      5-min Rain = 0
KASR 130520Z 15013G20KT 28/15 A2989 RMK A01 T02780147  RH  046%=      5-min Rain = 0
KASR 130525Z 15014G20KT 28/15 A2989 RMK A01 T02770147  RH  046%=      5-min Rain = 0
KASR 130530Z 15012G19KT 28/15 A2989 RMK A01 T02750148  RH  047%=      5-min Rain = 0
KASR 130535Z 15012G18KT 27/15 A2989 RMK A01 T02740148  RH  047%=      5-min Rain = 0
KASR 130540Z 14012G17KT 27/15 A2989 RMK A01 T02730148  RH  047%=      5-min Rain = 0
KASR 130545Z 15012G18KT 27/15 A2989 RMK A01 T02720148  RH  048%=      5-min Rain = 0
KASR 130550Z 15011KT 27/15 A2989 RMK A01 T02720149  RH  048%=      5-min Rain = 0
KASR 130555Z 15013G19KT 27/15 A2988 RMK A01 T02720149  RH  048%=      5-min Rain = 0
KASR 130600Z 15012G17KT 27/15 A2988 RMK A01 T02720149  RH  048%=      5-min Rain = 0
KASR 130605Z 15013G18KT 27/15 A2988 RMK A01 T02710149  RH  048%=      5-min Rain = 0
KASR 130610Z 15010G15KT 27/15 A2988 RMK A01 T02700150  RH  049%=      5-min Rain = 0
KASR 130615Z 15012G19KT 27/15 A2988 RMK A01 T02690150  RH  049%=      5-min Rain = 0
KASR 130620Z 15011G16KT 27/15 A2988 RMK A01 T02690150  RH  049%=      5-min Rain = 0
KASR 130625Z 16011G17KT 27/15 A2988 RMK A01 T02690151  RH  049%=      5-min Rain = 0
KASR 130630Z 16011G18KT 27/15 A2988 RMK A01 T02690151  RH  050%=      5-min Rain = 0
KASR 130635Z 17013G18KT 27/15 A2988 RMK A01 T02690151  RH  050%=      5-min Rain = 0
KASR 130640Z 17014G19KT 27/15 A2988 RMK A01 T02700152  RH  050%=      5-min Rain = 0
KASR 130645Z 17012G17KT 27/15 A2989 RMK A01 T02700153  RH  050%=      5-min Rain = 0
KASR 130650Z 17012KT 27/15 A2989 RMK A01 T02700154  RH  050%=      5-min Rain = 0
KASR 130655Z 17012G20KT 27/16 A2989 RMK A01 T02710155  RH  050%=      5-min Rain = 0
KASR 130700Z 17011G18KT 27/16 A2989 RMK A01 T02710155  RH  050%=      5-min Rain = 0
KASR 130705Z 17011G16KT 27/16 A299 RMK A01 T02710156  RH  050%=      5-min Rain = 0
KASR 130710Z 17010KT 27/16 A2989 RMK A01 T02700156  RH  051%=      5-min Rain = 0
KASR 130715Z 17011G16KT 27/16 A2989 RMK A01 T02700157  RH  051%=      5-min Rain = 0
KASR 130720Z 17012KT 27/16 A2989 RMK A01 T02690157  RH  051%=      5-min Rain = 0
KASR 130725Z 17011KT 27/16 A2989 RMK A01 T02690157  RH  052%=      5-min Rain = 0
KASR 130730Z 17011G16KT 27/16 A2989 RMK A01 T02680158  RH  052%=      5-min Rain = 0
KASR 130735Z 18010KT 27/16 A2989 RMK A01 T02670158  RH  052%=      5-min Rain = 0
KASR 130740Z 18009G15KT 27/16 A2989 RMK A01 T02660158  RH  053%=      5-min Rain = 0
KASR 130745Z 18009KT 27/16 A2989 RMK A01 T02650158  RH  053%=      5-min Rain = 0
KASR 130750Z 17008KT 27/16 A2989 RMK A01 T02650159  RH  053%=      5-min Rain = 0
KASR 130755Z 17008KT 27/16 A2989 RMK A01 T02650159  RH  053%=      5-min Rain = 0
KASR 130800Z 18009KT 27/16 A2989 RMK A01 T02650159  RH  053%=      5-min Rain = 0
KASR 130805Z 18009KT 27/16 A2989 RMK A01 T02650159  RH  054%=      5-min Rain = 0
KASR 130810Z 18010KT 26/16 A2989 RMK A01 T02640160  RH  054%=      5-min Rain = 0
KASR 130815Z 18009KT 26/16 A2989 RMK A01 T02640160  RH  054%=      5-min Rain = 0
KASR 130820Z 19010KT 26/16 A2989 RMK A01 T02630160  RH  054%=      5-min Rain = 0
KASR 130825Z 19010KT 26/16 A2989 RMK A01 T02630160  RH  054%=      5-min Rain = 0
KASR 130830Z 20009KT 26/16 A2989 RMK A01 T02620160  RH  054%=      5-min Rain = 0
KASR 130835Z 20008KT 26/16 A2989 RMK A01 T02620159  RH  054%=      5-min Rain = 0
KASR 130840Z 20007KT 26/16 A299 RMK A01 T02610159  RH  055%=      5-min Rain = 0
KASR 130845Z 19008KT 26/16 A299 RMK A01 T02610159  RH  055%=      5-min Rain = 0
KASR 130850Z 18006KT 26/16 A299 RMK A01 T02590159  RH  055%=      5-min Rain = 0
KASR 130855Z 18006KT 26/16 A299 RMK A01 T02590159  RH  055%=      5-min Rain = 0
KASR 130900Z 18007KT 26/16 A299 RMK A01 T02570159  RH  056%=      5-min Rain = 0
KASR 130905Z 18007KT 26/16 A299 RMK A01 T02560158  RH  056%=      5-min Rain = 0
KASR 130910Z 18008KT 26/16 A299 RMK A01 T02560158  RH  056%=      5-min Rain = 0
KASR 130915Z 17007KT 26/16 A299 RMK A01 T02560158  RH  056%=      5-min Rain = 0
KASR 130920Z 17007KT 26/16 A299 RMK A01 T02560158  RH  056%=      5-min Rain = 0
KASR 130925Z 17006KT 26/16 A299 RMK A01 T02550158  RH  056%=      5-min Rain = 0
KASR 130930Z 15004KT 25/16 A299 RMK A01 T02540158  RH  057%=      5-min Rain = 0
KASR 130935Z 13003KT 25/16 A2991 RMK A01 T02500157  RH  058%=      5-min Rain = 0
KASR 130940Z 12004KT 25/16 A2991 RMK A01 T02460157  RH  059%=      5-min Rain = 0
KASR 130945Z 14005KT 24/16 A2991 RMK A01 T02440157  RH  060%=      5-min Rain = 0
KASR 130950Z 15007KT 25/16 A2991 RMK A01 T02470158  RH  059%=      5-min Rain = 0
KASR 130955Z 16007KT 25/16 A2991 RMK A01 T02480159  RH  059%=      5-min Rain = 0
KASR 131000Z 15007KT 25/16 A2991 RMK A01 T02480159  RH  059%=      5-min Rain = 0
KASR 131005Z 15007KT 25/16 A2991 RMK A01 T02480160  RH  060%=      5-min Rain = 0
KASR 131010Z 16008G13KT 25/16 A2991 RMK A01 T02470161  RH  060%=      5-min Rain = 0
KASR 131015Z 16007KT 25/16 A2992 RMK A01 T02470162  RH  061%=      5-min Rain = 0
KASR 131020Z 16006KT 25/16 A2992 RMK A01 T02460163  RH  061%=      5-min Rain = 0
KASR 131025Z 16005KT 25/16 A2992 RMK A01 T02450163  RH  061%=      5-min Rain = 0
KASR 131030Z 16005KT 24/16 A2992 RMK A01 T02440162  RH  062%=      5-min Rain = 0
KASR 131035Z 17006KT 24/16 A2992 RMK A01 T02430162  RH  062%=      5-min Rain = 0
KASR 131040Z 17007KT 24/16 A2992 RMK A01 T02420162  RH  062%=      5-min Rain = 0
KASR 131045Z 17006KT 24/16 A2992 RMK A01 T02420162  RH  062%=      5-min Rain = 0
KASR 131050Z 17006KT 24/16 A2992 RMK A01 T02420162  RH  062%=      5-min Rain = 0
KASR 131055Z 17005KT 24/16 A2992 RMK A01 T02420163  RH  063%=      5-min Rain = 0
KASR 131100Z 16005KT 24/16 A2992 RMK A01 T02410163  RH  063%=      5-min Rain = 0
KASR 131105Z 15004KT 24/16 A2992 RMK A01 T02410163  RH  063%=      5-min Rain = 0
KASR 131110Z 15005KT 24/16 A2992 RMK A01 T02400163  RH  063%=      5-min Rain = 0
KASR 131115Z 17007KT 24/16 A2993 RMK A01 T02410164  RH  063%=      5-min Rain = 0
KASR 131120Z 18008KT 24/16 A2993 RMK A01 T02410164  RH  064%=      5-min Rain = 0
KASR 131125Z 17008KT 24/17 A2993 RMK A01 T02400165  RH  064%=      5-min Rain = 0
KASR 131130Z 18006KT 24/17 A2994 RMK A01 T02400165  RH  064%=      5-min Rain = 0
KASR 131135Z 18006KT 24/17 A2994 RMK A01 T02400166  RH  064%=      5-min Rain = 0
KASR 131140Z 18007KT 24/17 A2994 RMK A01 T02400167  RH  065%=      5-min Rain = 0
KASR 131145Z 17006KT 24/17 A2995 RMK A01 T02400167  RH  065%=      5-min Rain = 0
KASR 131150Z 17006KT 24/17 A2995 RMK A01 T02400168  RH  066%=      5-min Rain = 0
KASR 131155Z 18007KT 24/17 A2995 RMK A01 T02410169  RH  066%=      5-min Rain = 0
KASR 131200Z 17008KT 24/17 A2995 RMK A01 T02410171  RH  067%=      5-min Rain = 0
KASR 131205Z 17009KT 24/17 A2995 RMK A01 T02410172  RH  067%=      5-min Rain = 0
KASR 131210Z 17009G14KT 24/17 A2995 RMK A01 T02410173  RH  067%=      5-min Rain = 0
KASR 131215Z 18011G16KT 24/17 A2995 RMK A01 T02410174  RH  068%=      5-min Rain = 0
KASR 131220Z 18009KT 24/18 A2995 RMK A01 T02400175  RH  068%=      5-min Rain = 0
KASR 131225Z 18008KT 24/18 A2995 RMK A01 T02400175  RH  069%=      5-min Rain = 0
KASR 131230Z 17008KT 24/17 A2996 RMK A01 T02390174  RH  069%=      5-min Rain = 0
KASR 131235Z 17008KT 24/17 A2995 RMK A01 T02390174  RH  069%=      5-min Rain = 0
KASR 131240Z 17007KT 24/17 A2996 RMK A01 T02390174  RH  069%=      5-min Rain = 0
KASR 131245Z 17006G11KT 24/18 A2996 RMK A01 T02390175  RH  069%=      5-min Rain = 0
KASR 131250Z 17007KT 24/18 A2996 RMK A01 T02390176  RH  070%=      5-min Rain = 0
KASR 131255Z 17007KT 24/18 A2996 RMK A01 T02390176  RH  070%=      5-min Rain = 0
KASR 131300Z 16006KT 24/18 A2996 RMK A01 T02390176  RH  070%=      5-min Rain = 0
KASR 131305Z 17006KT 24/18 A2996 RMK A01 T02390177  RH  070%=      5-min Rain = 0
KASR 131310Z 16006KT 24/18 A2996 RMK A01 T02390177  RH  070%=      5-min Rain = 0
KASR 131315Z 18006KT 24/18 A2996 RMK A01 T02400178  RH  070%=      5-min Rain = 0
KASR 131320Z 17005KT 24/18 A2996 RMK A01 T02400178  RH  070%=      5-min Rain = 0
KASR 131325Z 16005KT 24/18 A2996 RMK A01 T02410178  RH  070%=      5-min Rain = 0
KASR 131330Z 16006KT 24/18 A2996 RMK A01 T02410178  RH  070%=      5-min Rain = 0
KASR 131335Z 16006G11KT 24/18 A2996 RMK A01 T02420179  RH  070%=      5-min Rain = 0
KASR 131340Z 14005KT 24/18 A2996 RMK A01 T02420179  RH  069%=      5-min Rain = 0
KASR 131345Z 14007KT 24/18 A2997 RMK A01 T02420179  RH  069%=      5-min Rain = 0
KASR 131350Z 15007KT 24/18 A2996 RMK A01 T02410179  RH  070%=      5-min Rain = 0
KASR 131355Z 16006KT 24/18 A2996 RMK A01 T02410179  RH  070%=      5-min Rain = 0
KASR 131400Z 15006KT 24/18 A2997 RMK A01 T02420179  RH  070%=      5-min Rain = 0
KASR 131405Z 16008KT 25/18 A2997 RMK A01 T02470182  RH  069%=      5-min Rain = 0
KASR 131410Z 18011G17KT 26/18 A2997 RMK A01 T02600184  RH  065%=      5-min Rain = 0
KASR 131415Z 19013G19KT 26/18 A2997 RMK A01 T02610184  RH  064%=      5-min Rain = 0
KASR 131420Z 17010G16KT 27/19 A2997 RMK A01 T02660185  RH  063%=      5-min Rain = 0
KASR 131425Z 17012KT 27/19 A2997 RMK A01 T02670185  RH  062%=      5-min Rain = 0
KASR 131430Z 17011KT 26/18 A2997 RMK A01 T02630184  RH  064%=      5-min Rain = 0
KASR 131435Z 18013KT 27/19 A2997 RMK A01 T02660185  RH  063%=      5-min Rain = 0
KASR 131440Z 18013G19KT 27/19 A2997 RMK A01 T02670185  RH  062%=      5-min Rain = 0
KASR 131445Z 18012G17KT 27/19 A2997 RMK A01 T02690186  RH  062%=      5-min Rain = 0
KASR 131450Z 19013KT 27/19 A2997 RMK A01 T02740186  RH  060%=      5-min Rain = 0
KASR 131455Z 20015G21KT 28/19 A2997 RMK A01 T02750186  RH  060%=      5-min Rain = 0
KASR 131500Z 19014G21KT 28/19 A2997 RMK A01 T02770186  RH  059%=      5-min Rain = 0
KASR 131505Z 19014G20KT 28/19 A2997 RMK A01 T02790186  RH  058%=      5-min Rain = 0
KASR 131510Z 19014G19KT 28/19 A2997 RMK A01 T02800186  RH  058%=      5-min Rain = 0
KASR 131515Z 19014G21KT 28/19 A2997 RMK A01 T02800185  RH  058%=      5-min Rain = 0
KASR 131520Z 20015G20KT 29/19 A2996 RMK A01 T02860185  RH  056%=      5-min Rain = 0
KASR 131525Z 20015G21KT 29/19 A2996 RMK A01 T02850185  RH  056%=      5-min Rain = 0
KASR 131530Z 20014G19KT 29/19 A2996 RMK A01 T02860185  RH  056%=      5-min Rain = 0
KASR 131535Z 19013G19KT 29/19 A2996 RMK A01 T02860186  RH  056%=      5-min Rain = 0
KASR 131540Z 19013G18KT 29/19 A2996 RMK A01 T02930186  RH  054%=      5-min Rain = 0
KASR 131545Z 20013G19KT 29/19 A2996 RMK A01 T02930185  RH  054%=      5-min Rain = 0
KASR 131550Z 20013G20KT 30/19 A2996 RMK A01 T02950186  RH  053%=      5-min Rain = 0
KASR 131555Z 20013G20KT 29/19 A2996 RMK A01 T02930185  RH  054%=      5-min Rain = 0
KASR 131600Z 20013G18KT 30/19 A2996 RMK A01 T02970185  RH  052%=      5-min Rain = 0
KASR 131605Z 21012G17KT 30/18 A2996 RMK A01 T02980184  RH  052%=      5-min Rain = 0
KASR 131610Z 21012G17KT 30/18 A2996 RMK A01 T03030184  RH  050%=      5-min Rain = 0
KASR 131615Z 21013KT 31/18 A2996 RMK A01 T03050184  RH  049%=      5-min Rain = 0
KASR 131620Z 20014KT 31/18 A2996 RMK A01 T03060182  RH  049%=      5-min Rain = 0
KASR 131625Z 21012G17KT 31/18 A2996 RMK A01 T03050183  RH  049%=      5-min Rain = 0
KASR 131630Z 19013KT 31/18 A2996 RMK A01 T03090183  RH  048%=      5-min Rain = 0
KASR 131635Z 20013G20KT 31/18 A2996 RMK A01 T03060182  RH  049%=      5-min Rain = 0
KASR 131640Z 18011G17KT 30/18 A2996 RMK A01 T03040183  RH  050%=      5-min Rain = 0
KASR 131645Z 18014G19KT 31/18 A2996 RMK A01 T03090183  RH  048%=      5-min Rain = 0
KASR 131650Z 19011G22KT 31/18 A2995 RMK A01 T03120183  RH  047%=      5-min Rain = 0
KASR 131655Z 18015G20KT 32/18 A2995 RMK A01 T03160182  RH  046%=      5-min Rain = 0
KASR 131700Z 20012G19KT 32/18 A2995 RMK A01 T03160181  RH  046%=      5-min Rain = 0
KASR 131705Z 18011KT 32/18 A2995 RMK A01 T03150180  RH  046%=      5-min Rain = 0
KASR 131710Z 19013G18KT 32/18 A2995 RMK A01 T03240181  RH  044%=      5-min Rain = 0
KASR 131715Z 18010G16KT 32/18 A2994 RMK A01 T03240179  RH  043%=      5-min Rain = 0
KASR 131720Z 19012G19KT 33/18 A2994 RMK A01 T03250178  RH  043%=      5-min Rain = 0
KASR 131725Z 20012G17KT 32/18 A2994 RMK A01 T03240179  RH  043%=      5-min Rain = 0
KASR 131730Z 19010KT 33/18 A2994 RMK A01 T03300179  RH  042%=      5-min Rain = 0
KASR 131735Z 18012G17KT 33/18 A2994 RMK A01 T03290181  RH  042%=      5-min Rain = 0
KASR 131740Z 18012G19KT 33/18 A2994 RMK A01 T03270180  RH  043%=      5-min Rain = 0
KASR 131745Z 18013G18KT 33/18 A2994 RMK A01 T03280180  RH  042%=      5-min Rain = 0
KASR 131750Z 19012G20KT 33/18 A2993 RMK A01 T03290178  RH  042%=      5-min Rain = 0
KASR 131755Z 17013G20KT 33/18 A2993 RMK A01 T03300178  RH  042%=      5-min Rain = 0
KASR 131800Z 16011G16KT 33/18 A2993 RMK A01 T03290178  RH  042%=      5-min Rain = 0
KASR 131805Z 17011G16KT 33/18 A2993 RMK A01 T03310178  RH  041%=      5-min Rain = 0
KASR 131810Z 16010G19KT 33/18 A2993 RMK A01 T03310179  RH  041%=      5-min Rain = 0
KASR 131815Z 16012KT 33/18 A2993 RMK A01 T03340178  RH  041%=      5-min Rain = 0
KASR 131820Z 17011G18KT 33/18 A2993 RMK A01 T03340177  RH  040%=      5-min Rain = 0
KASR 131825Z 18012G19KT 33/18 A2993 RMK A01 T03340175  RH  040%=      5-min Rain = 0
KASR 131830Z 17010G16KT 33/18 A2992 RMK A01 T03290176  RH  041%=      5-min Rain = 0
KASR 131835Z 16010G18KT 33/18 A2992 RMK A01 T03330176  RH  040%=      5-min Rain = 0
KASR 131840Z 18012G18KT 34/18 A2992 RMK A01 T03390176  RH  039%=      5-min Rain = 0
KASR 131845Z 16010G18KT 34/18 A2992 RMK A01 T03380178  RH  040%=      5-min Rain = 0
KASR 131850Z 17010G16KT 33/18 A2991 RMK A01 T03330177  RH  041%=      5-min Rain = 0
KASR 131855Z 18011G16KT 34/18 A2991 RMK A01 T03390175  RH  039%=      5-min Rain = 0
KASR 131900Z 16010KT 34/18 A2991 RMK A01 T03370175  RH  039%=      5-min Rain = 0
KASR 131905Z 14010G16KT 34/17 A2991 RMK A01 T03400173  RH  038%=      5-min Rain = 0
KASR 131910Z 19012KT 34/17 A2991 RMK A01 T03440171  RH  037%=      5-min Rain = 0
KASR 131915Z 19010G15KT 34/17 A2991 RMK A01 T03420172  RH  037%=      5-min Rain = 0
KASR 131920Z 16010G16KT 34/17 A299 RMK A01 T03410171  RH  037%=      5-min Rain = 0
KASR 131925Z 16013G21KT 34/17 A299 RMK A01 T03400171  RH  037%=      5-min Rain = 0
KASR 131930Z 16009G17KT 34/17 A299 RMK A01 T03390170  RH  038%=      5-min Rain = 0
KASR 131935Z 15007G13KT 34/17 A299 RMK A01 T03390172  RH  038%=      5-min Rain = 0
KASR 131940Z 17013KT 35/17 A299 RMK A01 T03450171  RH  037%=      5-min Rain = 0
KASR 131945Z 17012G18KT 34/17 A299 RMK A01 T03410167  RH  036%=      5-min Rain = 0
KASR 131950Z 16010KT 34/17 A299 RMK A01 T03420170  RH  037%=      5-min Rain = 0
KASR 131955Z 16010G15KT 34/17 A2989 RMK A01 T03380171  RH  038%=      5-min Rain = 0
KASR 132000Z 17012G21KT 34/17 A2989 RMK A01 T03400171  RH  037%=      5-min Rain = 0
KASR 132005Z 16011G17KT 35/17 A2989 RMK A01 T03510170  RH  035%=      5-min Rain = 0
KASR 132010Z 16009KT 35/17 A2989 RMK A01 T03480171  RH  036%=      5-min Rain = 0
KASR 132015Z 16011G18KT 35/17 A2988 RMK A01 T03460170  RH  036%=      5-min Rain = 0
KASR 132020Z 14011G18KT 34/17 A2988 RMK A01 T03440166  RH  036%=      5-min Rain = 0
KASR 132025Z 14012G19KT 34/16 A2988 RMK A01 T03420163  RH  035%=      5-min Rain = 0
KASR 132030Z 16011G19KT 34/17 A2988 RMK A01 T03440167  RH  036%=      5-min Rain = 0
KASR 132035Z 17010G17KT 35/17 A2988 RMK A01 T03470167  RH  035%=      5-min Rain = 0
KASR 132040Z 17010G17KT 35/17 A2988 RMK A01 T03480168  RH  035%=      5-min Rain = 0
KASR 132045Z 16011G19KT 34/17 A2988 RMK A01 T03400165  RH  036%=      5-min Rain = 0
KASR 132050Z 14011G20KT 35/16 A2987 RMK A01 T03450160  RH  034%=      5-min Rain = 0
KASR 132055Z 15010G16KT 35/16 A2987 RMK A01 T03500159  RH  033%=      5-min Rain = 0
KASR 132100Z 16011G17KT 35/17 A2987 RMK A01 T03480165  RH  035%=      5-min Rain = 0
KASR 132105Z 16013G21KT 34/17 A2987 RMK A01 T03440166  RH  035%=      5-min Rain = 0
KASR 132110Z 16012G21KT 35/17 A2987 RMK A01 T03470166  RH  035%=      5-min Rain = 0
KASR 132115Z 15013G19KT 35/17 A2987 RMK A01 T03470165  RH  035%=      5-min Rain = 0
KASR 132120Z 14011G18KT 35/16 A2987 RMK A01 T03480164  RH  034%=      5-min Rain = 0
KASR 132125Z 15013G21KT 35/16 A2987 RMK A01 T03470162  RH  034%=      5-min Rain = 0
KASR 132130Z 14011G21KT 34/16 A2987 RMK A01 T03430163  RH  035%=      5-min Rain = 0
KASR 132135Z 13013G21KT 34/17 A2986 RMK A01 T03420165  RH  036%=      5-min Rain = 0
KASR 132140Z 15011G18KT 34/17 A2986 RMK A01 T03430165  RH  035%=      5-min Rain = 0
KASR 132145Z 16012G19KT 35/17 A2986 RMK A01 T03480165  RH  035%=      5-min Rain = 0
KASR 132150Z 16013G21KT 34/16 A2986 RMK A01 T03440164  RH  035%=      5-min Rain = 0
KASR 132155Z 16014G19KT 34/16 A2986 RMK A01 T03400164  RH  036%=      5-min Rain = 0
KASR 132200Z 15012G18KT 34/16 A2985 RMK A01 T03430164  RH  035%=      5-min Rain = 0
KASR 132205Z 15012G21KT 35/17 A2985 RMK A01 T03460166  RH  035%=      5-min Rain = 0
KASR 132210Z 13012G19KT 34/17 A2985 RMK A01 T03380166  RH  037%=      5-min Rain = 0
KASR 132215Z 15011G18KT 34/17 A2985 RMK A01 T03410165  RH  036%=      5-min Rain = 0
KASR 132220Z 15012G21KT 34/17 A2985 RMK A01 T03390165  RH  036%=      5-min Rain = 0
KASR 132225Z 15012G19KT 34/17 A2984 RMK A01 T03390165  RH  036%=      5-min Rain = 0
KASR 132230Z 15013G20KT 34/17 A2984 RMK A01 T03370166  RH  037%=      5-min Rain = 0
KASR 132235Z 15013G21KT 34/17 A2984 RMK A01 T03360167  RH  038%=      5-min Rain = 0
KASR 132240Z 16012G21KT 33/17 A2984 RMK A01 T03340168  RH  038%=      5-min Rain = 0
KASR 132245Z 16013G19KT 33/17 A2984 RMK A01 T03300168  RH  039%=      5-min Rain = 0
KASR 132250Z 16012G21KT 33/17 A2984 RMK A01 T03250168  RH  040%=      5-min Rain = 0
KASR 132255Z 15012G18KT 33/17 A2984 RMK A01 T03250167  RH  040%=      5-min Rain = 0
KASR 132300Z 15012G20KT 33/17 A2984 RMK A01 T03270167  RH  039%=      5-min Rain = 0
KASR 132305Z 15013G20KT 33/17 A2983 RMK A01 T03270166  RH  039%=      5-min Rain = 0
KASR 132310Z 14011G17KT 33/17 A2983 RMK A01 T03260166  RH  039%=      5-min Rain = 0
KASR 132315Z 14011G17KT 32/17 A2983 RMK A01 T03240165  RH  039%=      5-min Rain = 0
KASR 132320Z 15011G17KT 33/17 A2983 RMK A01 T03250167  RH  040%=      5-min Rain = 0
KASR 132325Z 15012G18KT 32/17 A2983 RMK A01 T03240169  RH  040%=      5-min Rain = 0
KASR 132330Z 14013G19KT 32/17 A2982 RMK A01 T03240170  RH  041%=      5-min Rain = 0
KASR 132335Z 15015G25KT 32/17 A2982 RMK A01 T03230172  RH  042%=      5-min Rain = 0
KASR 132340Z 14015G24KT 32/17 A2981 RMK A01 T03180173  RH  043%=      5-min Rain = 0
KASR 132345Z 15017G26KT 32/17 A2981 RMK A01 T03200174  RH  043%=      5-min Rain = 0
KASR 132350Z 15017G26KT 32/17 A2981 RMK A01 T03180174  RH  043%=      5-min Rain = 0
KASR 132355Z 14016G24KT 32/17 A2981 RMK A01 T03180173  RH  043%=      5-min Rain = 0
KASR 140000Z 15015G22KT 32/17 A2982 RMK A01 T03190173  RH  043%=      5-min Rain = 0
KASR 140005Z 16016G25KT 32/17 A2982 RMK A01 T03170172  RH  043%=      5-min Rain = 0
KASR 140010Z 15014G25KT 31/17 A2982 RMK A01 T03140171  RH  043%=      5-min Rain = 0
KASR 140015Z 16015G23KT 31/17 A2982 RMK A01 T03130170  RH  043%=      5-min Rain = 0
KASR 140020Z 16016G24KT 31/17 A2983 RMK A01 T03110169  RH  044%=      5-min Rain = 0
KASR 140025Z 16014G22KT 31/17 A2982 RMK A01 T03090169  RH  044%=      5-min Rain = 0
KASR 140030Z 16017G23KT 31/17 A2982 RMK A01 T03070168  RH  044%=      5-min Rain = 0
KASR 140035Z 16014G20KT 31/17 A2982 RMK A01 T03070167  RH  044%=      5-min Rain = 0
KASR 140040Z 16015G22KT 31/17 A2982 RMK A01 T03060167  RH  044%=      5-min Rain = 0
KASR 140045Z 16013G21KT 31/17 A2982 RMK A01 T03050166  RH  044%=      5-min Rain = 0
KASR 140050Z 16013G20KT 31/17 A2983 RMK A01 T03060167  RH  044%=      5-min Rain = 0
KASR 140055Z 16013G19KT 31/17 A2983 RMK A01 T03060167  RH  044%=      5-min Rain = 0
KASR 140100Z 16014G22KT 31/17 A2983 RMK A01 T03060166  RH  044%=      5-min Rain = 0
KASR 140105Z 16014G22KT 30/17 A2983 RMK A01 T03040166  RH  045%=      5-min Rain = 0
KASR 140110Z 16013G20KT 30/17 A2983 RMK A01 T03020166  RH  045%=      5-min Rain = 0
KASR 140115Z 17013G19KT 30/17 A2983 RMK A01 T03010166  RH  045%=      5-min Rain = 0
KASR 140120Z 16013G19KT 30/17 A2983 RMK A01 T02990166  RH  046%=      5-min Rain = 0
KASR 140125Z 16012G20KT 30/17 A2983 RMK A01 T02990165  RH  046%=      5-min Rain = 0
KASR 140130Z 16012G18KT 30/17 A2983 RMK A01 T02970165  RH  046%=      5-min Rain = 0
KASR 140135Z 16012G18KT 30/17 A2983 RMK A01 T02970165  RH  046%=      5-min Rain = 0
KASR 140140Z 15012G19KT 30/17 A2982 RMK A01 T02960165  RH  046%=      5-min Rain = 0
KASR 140145Z 15011KT 29/17 A2982 RMK A01 T02940165  RH  047%=      5-min Rain = 0
KASR 140150Z 15011G17KT 29/17 A2982 RMK A01 T02930166  RH  047%=      5-min Rain = 0
KASR 140155Z 14010KT 29/17 A2982 RMK A01 T02930166  RH  047%=      5-min Rain = 0
KASR 140200Z 14010KT 29/17 A2982 RMK A01 T02920166  RH  048%=      5-min Rain = 0
KASR 140205Z 14007G14KT 29/17 A2982 RMK A01 T02900166  RH  048%=      5-min Rain = 0
KASR 140210Z 14009KT 29/17 A2983 RMK A01 T02900166  RH  048%=      5-min Rain = 0
KASR 140215Z 14008KT 29/17 A2983 RMK A01 T02890167  RH  049%=      5-min Rain = 0
KASR 140220Z 14008G13KT 29/17 A2984 RMK A01 T02880167  RH  049%=      5-min Rain = 0
KASR 140225Z 14009KT 29/17 A2984 RMK A01 T02880166  RH  049%=      5-min Rain = 0
KASR 140230Z 14007KT 29/17 A2985 RMK A01 T02870166  RH  049%=      5-min Rain = 0
KASR 140235Z 13005KT 29/17 A2985 RMK A01 T02860166  RH  049%=      5-min Rain = 0
KASR 140240Z 12005KT 28/17 A2986 RMK A01 T02840166  RH  050%=      5-min Rain = 0
KASR 140245Z 11006KT 28/17 A2986 RMK A01 T02820166  RH  051%=      5-min Rain = 0
KASR 140250Z 10006KT 28/17 A2987 RMK A01 T02800166  RH  051%=      5-min Rain = 0
KASR 140255Z 10006KT 28/17 A2987 RMK A01 T02790166  RH  052%=      5-min Rain = 0
KASR 140300Z 10005KT 28/17 A2988 RMK A01 T02760166  RH  052%=      5-min Rain = 0
KASR 140305Z 10005KT 28/17 A2988 RMK A01 T02750166  RH  053%=      5-min Rain = 0
KASR 140310Z 10006KT 27/17 A2989 RMK A01 T02730166  RH  053%=      5-min Rain = 0
KASR 140315Z 11007KT 27/17 A2989 RMK A01 T02730165  RH  053%=      5-min Rain = 0
KASR 140320Z 11007KT 27/16 A2989 RMK A01 T02740164  RH  052%=      5-min Rain = 0
KASR 140325Z 12007KT 27/16 A2989 RMK A01 T02740164  RH  052%=      5-min Rain = 0
KASR 140330Z 12008KT 28/16 A299 RMK A01 T02750163  RH  052%=      5-min Rain = 0
KASR 140335Z 13009G15KT 28/16 A299 RMK A01 T02750161  RH  051%=      5-min Rain = 0
KASR 140340Z 14009G15KT 28/16 A299 RMK A01 T02760160  RH  050%=      5-min Rain = 0
KASR 140345Z 14010KT 28/16 A299 RMK A01 T02760158  RH  050%=      5-min Rain = 0
KASR 140350Z 15010G15KT 28/16 A299 RMK A01 T02770157  RH  049%=      5-min Rain = 0
KASR 140355Z 15010KT 28/16 A299 RMK A01 T02770157  RH  049%=      5-min Rain = 0
KASR 140400Z 15011KT 28/16 A299 RMK A01 T02770157  RH  049%=      5-min Rain = 0
KASR 140405Z 15010G15KT 28/16 A299 RMK A01 T02760157  RH  049%=      5-min Rain = 0
KASR 140410Z 15009KT 27/16 A299 RMK A01 T02740156  RH  050%=      5-min Rain = 0
KASR 140415Z 14010G16KT 27/16 A299 RMK A01 T02740156  RH  050%=      5-min Rain = 0
KASR 140420Z 14009G14KT 27/16 A299 RMK A01 T02730156  RH  050%=      5-min Rain = 0
KASR 140425Z 14008G14KT 27/16 A299 RMK A01 T02720156  RH  050%=      5-min Rain = 0
KASR 140430Z 14007G12KT 27/16 A299 RMK A01 T02710156  RH  050%=      5-min Rain = 0
KASR 140435Z 14007KT 27/16 A299 RMK A01 T02690155  RH  051%=      5-min Rain = 0
KASR 140440Z 14008KT 27/16 A299 RMK A01 T02690155  RH  051%=      5-min Rain = 0
KASR 140445Z 14007KT 27/16 A299 RMK A01 T02690155  RH  051%=      5-min Rain = 0
KASR 140450Z 14007KT 27/16 A299 RMK A01 T02680155  RH  051%=      5-min Rain = 0
KASR 140455Z 14007KT 27/16 A299 RMK A01 T02680155  RH  051%=      5-min Rain = 0

Page generated in 0.0155 seconds.